Messwerte Burley

Temperatur

Temperatur
°C
1614373200 14.00 14.00 2
1614376800 15.00 15.00 0
1614380400 16.00 16.00 -1
1614384000 17.00 17.00 -2
1614387600 18.00 18.00 -1
1614391200 19.00 19.00 -2
1614394800 20.00 20.00 -3
1614398400 21.00 21.00 -3
1614402000 22.00 22.00 -2
1614405600 23.00 23.00 -3
1614409200 0.00 0.00 -3
1614412800 1.00 1.00 -3
1614416400 2.00 2.00 -4
1614420000 3.00 3.00 -3
1614423600 4.00 4.00 -4
1614427200 5.00 5.00 -3
1614430800 6.00 6.00 -3
1614434400 7.00 7.00
1614438000 8.00 8.00 -3
1614441600 9.00 9.00 -3
1614445200 10.00 10.00 -2
1614448800 11.00 11.00 -1
1614452400 12.00 12.00 0
1614456000 13.00 13.00

Wir danken unserem Partner:

Aktuellste Messwerte

Wettercharakter
Wetter: wechselnd bewölkt
Temperatur
-1 °C
Feuchtigkeit
65 %
Wind
25 km/hWindrichtung: West
Böen
45 km/h
Luftdruck
1015 hPa
Messzeit: 27. Februar 2021, 13.00Datenquelle: METAR

Weitere Messstationen in der Nähe

Messstation Temperatur Entfernung
Twin Falls 0 °C 59 km
Jerome 1 °C 60 km
Pocatello -1 °C 104 km
Hailey -2 °C 115 km
Idaho Falls -3 °C 176 km
Logan -3 °C 179 km
Mountain Home Air Force Base 3 °C 180 km

Wind

Windrichtung Böen Mittelwind
° km/h km/h
1614373200 14.00 13.00 - 14.00 230° 50 25
1614376800 15.00 14.00 - 15.00 290° 45 25
1614380400 16.00 15.00 - 16.00 270° 45 25
1614384000 17.00 16.00 - 17.00 240° 45 25
1614387600 18.00 17.00 - 18.00 260° 50 30
1614391200 19.00 18.00 - 19.00 270° 60 35
1614394800 20.00 19.00 - 20.00 260° 50 30
1614398400 21.00 20.00 - 21.00 250° 45 25
1614402000 22.00 21.00 - 22.00 260° 50 35
1614405600 23.00 22.00 - 23.00 260° 30
1614409200 0.00 23.00 - 0.00 270° 45 30
1614412800 1.00 0.00 - 1.00 260° 55 30
1614416400 2.00 1.00 - 2.00 230° 35 25
1614420000 3.00 2.00 - 3.00 230° 35 20
1614423600 4.00 3.00 - 4.00 220° 20
1614427200 5.00 4.00 - 5.00 270° 20
1614430800 6.00 5.00 - 6.00 240° 20
1614434400 7.00 6.00 - 7.00
1614438000 8.00 7.00 - 8.00 250° 20
1614441600 9.00 8.00 - 9.00 260° 25
1614445200 10.00 9.00 - 10.00 270° 40 25
1614448800 11.00 10.00 - 11.00 260° 40 20
1614452400 12.00 11.00 - 12.00 280° 40 20
1614456000 13.00 12.00 - 13.00

Ihre Wetterstation

Fehlt Ihre Wetterstation auf unserem Portal?

Schreiben Sie an network@meteonews.ch

Klima

Wann ist es am wärmsten? Wann regnet es am wenigsten? Unsere Klimadaten geben Auskunft.